KTOA

Zamperini Field Airport

Torrance, California, USA
METAR KTOA 190347Z 00000KT 10SM SCT200 15/11 A3002
Observed Flight Rules
Jan-19 @ 03:47 UTC (3 hours ago) Visual Flight Rules
Wind Visibility Clouds
Calm 10 miles
  • Scattered at 20,000' AGL
Temperatures Readings
Current 15°C / 59°F
Dewpoint 11°C / 52°F
Humidity 77%
Altimeter 30.02" Hg
Pressure 1017 hPa
Elevation 31
METAR KTOA 190347Z 00000KT 10SM SCT200 15/11 A3002
Observed Flight Rules
Jan-19 @ 03:47 UTC
(3 hours ago)
VFR
Wind Visibility
Calm 10 miles
Clouds
  • Scattered at 20,000' AGL
Temperature Dewpoint
15°C / 59°F 11°C / 52°F
Humidity Altimeter Pressure
77% 30.02" Hg 1017 hPa